PWSweather.com
Personal Weather Stations
Station Observations
CAPEBRETON
Mira Road, Sydney, NS

Mira RoadSydney, NS

Lat: 46.1207292, Lon: -60.1594642

Elevation: 175

Station Type: LaCrosse Weather Pro Center 2800 Series

http://pwscapebreton.weebly.com/

Latest ConditionsUpdated 3:56:04 PM GMT-04:56 Thursday, May 28, 2015
Currently Today's Max Today's Min Today's Average
Temperature 80.3°F26.8°C 82.1°F27.8°C 58.7°F14.8°C 68.0°F20.0°C
Dew Point 62.1°F16.7°C 64.6°F18.1°C 53.3°F11.8°C 58.9°F14.9°C
Winds 4.0 mph SW6.4 kmh SW 6.2 mph W10.0 kmh W - 3.4 mph 5.5 kmh
Wind Gusts 5.8 mph9.3 kmh 12.1 mph19.5 kmh - -
Humidity 54% 88% 53% 74%
Pressure 30.01 in1016.3 mb 30.09 in1019.0 mb 30.01 in1016.3 mb -
Hour Temp Dew Point Humidity Winds Wind Gusts Pressure Precip Precip Rate Daily Precip Total
03:56 PM 80.3°F26.8°C 62.1°F16.7°C 54% 4.0 mph SW6.4 kmh SW 5.8 mph9.3 kmh 30.01 in1016.3 mb 0.00 in0.0 mm 0.00 in0.0 mm 0.00 in0.0 mm
03:51 PM 81.2°F27.3°C 62.9°F17.2°C 54% 3.4 mph W5.5 kmh W 6.5 mph10.5 kmh 30.01 in1016.3 mb 0.00 in0.0 mm 0.00 in0.0 mm 0.00 in0.0 mm
03:46 PM 81.5°F27.5°C 62.6°F17.0°C 53% 3.4 mph WSW5.5 kmh WSW 7.2 mph11.6 kmh 30.01 in1016.3 mb 0.00 in0.0 mm 0.00 in0.0 mm 0.00 in0.0 mm
03:40 PM 81.9°F27.7°C 63.0°F17.2°C 53% 3.6 mph W5.8 kmh W 7.2 mph11.6 kmh 30.01 in1016.3 mb 0.00 in0.0 mm 0.00 in0.0 mm 0.00 in0.0 mm
03:35 PM 81.5°F27.5°C 63.2°F17.3°C 54% 2.8 mph W4.5 kmh W 8.5 mph13.7 kmh 30.02 in1016.6 mb 0.00 in0.0 mm 0.00 in0.0 mm 0.00 in0.0 mm
03:30 PM 81.5°F27.5°C 62.6°F17.0°C 53% 5.3 mph W8.5 kmh W 8.5 mph13.7 kmh 30.02 in1016.6 mb 0.00 in0.0 mm 0.00 in0.0 mm 0.00 in0.0 mm
03:25 PM 81.4°F27.4°C 63.0°F17.2°C 54% 3.7 mph WSW6.0 kmh WSW 6.9 mph11.1 kmh 30.02 in1016.6 mb 0.00 in0.0 mm 0.00 in0.0 mm 0.00 in0.0 mm
03:20 PM 80.5°F26.9°C 63.3°F17.4°C 56% 2.8 mph WNW4.5 kmh WNW 8.9 mph14.3 kmh 30.02 in1016.6 mb 0.00 in0.0 mm 0.00 in0.0 mm 0.00 in0.0 mm
03:15 PM 79.7°F26.5°C 62.1°F16.7°C 55% 4.6 mph WNW7.4 kmh WNW 8.9 mph14.3 kmh 30.02 in1016.6 mb 0.00 in0.0 mm 0.00 in0.0 mm 0.00 in0.0 mm
03:10 PM 80.5°F26.9°C 62.2°F16.8°C 54% 4.7 mph WNW7.6 kmh WNW 10.5 mph16.9 kmh 30.02 in1016.6 mb 0.00 in0.0 mm 0.00 in0.0 mm 0.00 in0.0 mm
03:05 PM 80.6°F27.0°C 62.4°F16.9°C 54% 4.0 mph W6.4 kmh W 10.5 mph16.9 kmh 30.02 in1016.6 mb 0.00 in0.0 mm 0.00 in0.0 mm 0.00 in0.0 mm
03:00 PM 81.0°F27.2°C 62.7°F17.1°C 54% 3.7 mph SW6.0 kmh SW 6.5 mph10.5 kmh 30.02 in1016.6 mb 0.00 in0.0 mm 0.00 in0.0 mm 0.00 in0.0 mm
02:55 PM 80.8°F27.1°C 63.6°F17.6°C 56% 2.3 mph W3.7 kmh W 6.3 mph10.1 kmh 30.02 in1016.6 mb 0.00 in0.0 mm 0.00 in0.0 mm 0.00 in0.0 mm
02:50 PM 80.6°F27.0°C 62.9°F17.2°C 55% 3.6 mph SW5.8 kmh SW 7.6 mph12.2 kmh 30.02 in1016.6 mb 0.00 in0.0 mm 0.00 in0.0 mm 0.00 in0.0 mm
02:45 PM 81.0°F27.2°C 63.3°F17.4°C 55% 3.4 mph NW5.5 kmh NW 7.6 mph12.2 kmh 30.02 in1016.6 mb 0.00 in0.0 mm 0.00 in0.0 mm 0.00 in0.0 mm
02:40 PM 81.7°F27.6°C 63.9°F17.7°C 55% 1.7 mph WNW2.7 kmh WNW 7.6 mph12.2 kmh 30.02 in1016.6 mb 0.00 in0.0 mm 0.00 in0.0 mm 0.00 in0.0 mm
02:35 PM 81.7°F27.6°C 63.9°F17.7°C 55% 3.2 mph N5.1 kmh N 6.9 mph11.1 kmh 30.02 in1016.6 mb 0.00 in0.0 mm 0.00 in0.0 mm 0.00 in0.0 mm
02:30 PM 81.2°F27.3°C 63.9°F17.7°C 56% 2.9 mph W4.7 kmh W 6.9 mph11.1 kmh 30.02 in1016.6 mb 0.00 in0.0 mm 0.00 in0.0 mm 0.00 in0.0 mm
02:25 PM 80.3°F26.8°C 63.1°F17.3°C 56% 4.8 mph SW7.7 kmh SW 6.9 mph11.1 kmh 30.02 in1016.6 mb 0.00 in0.0 mm 0.00 in0.0 mm 0.00 in0.0 mm
02:20 PM 79.7°F26.5°C 63.6°F17.6°C 58% 2.9 mph W4.7 kmh W 5.8 mph9.3 kmh 30.02 in1016.6 mb 0.00 in0.0 mm 0.00 in0.0 mm 0.00 in0.0 mm
02:15 PM 79.4°F26.3°C 63.4°F17.4°C 58% 3.5 mph W5.6 kmh W 6.5 mph10.5 kmh 30.02 in1016.6 mb 0.00 in0.0 mm 0.00 in0.0 mm 0.00 in0.0 mm
02:10 PM 79.4°F26.3°C 62.8°F17.1°C 57% 3.6 mph WNW5.8 kmh WNW 8.5 mph13.7 kmh 30.02 in1016.6 mb 0.00 in0.0 mm 0.00 in0.0 mm 0.00 in0.0 mm
02:05 PM 79.6°F26.4°C 63.0°F17.2°C 57% 4.0 mph N6.4 kmh N 10.3 mph16.6 kmh 30.02 in1016.6 mb 0.00 in0.0 mm 0.00 in0.0 mm 0.00 in0.0 mm
02:00 PM 79.9°F26.6°C 63.3°F17.4°C 57% 2.2 mph WNW3.5 kmh WNW 10.3 mph16.6 kmh 30.03 in1016.9 mb 0.00 in0.0 mm 0.00 in0.0 mm 0.00 in0.0 mm
01:55 PM 80.6°F27.0°C 62.9°F17.2°C 55% 4.2 mph WNW6.8 kmh WNW 8.1 mph13.0 kmh 30.03 in1016.9 mb 0.00 in0.0 mm 0.00 in0.0 mm 0.00 in0.0 mm
01:49 PM 81.0°F27.2°C 63.3°F17.4°C 55% 4.4 mph W7.1 kmh W 9.2 mph14.8 kmh 30.03 in1016.9 mb 0.00 in0.0 mm 0.00 in0.0 mm 0.00 in0.0 mm
01:44 PM 81.4°F27.4°C 63.0°F17.2°C 54% 4.9 mph W7.9 kmh W 9.2 mph14.8 kmh 30.02 in1016.6 mb 0.00 in0.0 mm 0.00 in0.0 mm 0.00 in0.0 mm
01:39 PM 82.1°F27.8°C 63.7°F17.6°C 54% 4.2 mph N6.8 kmh N 9.2 mph14.8 kmh 30.03 in1016.9 mb 0.00 in0.0 mm 0.00 in0.0 mm 0.00 in0.0 mm
01:34 PM 81.5°F27.5°C 63.7°F17.6°C 55% 5.1 mph WSW8.2 kmh WSW 9.2 mph14.8 kmh 30.03 in1016.9 mb 0.00 in0.0 mm 0.00 in0.0 mm 0.00 in0.0 mm
01:29 PM 81.0°F27.2°C 63.7°F17.6°C 56% 3.7 mph NW6.0 kmh NW 6.3 mph10.1 kmh 30.03 in1016.9 mb 0.00 in0.0 mm 0.00 in0.0 mm 0.00 in0.0 mm
01:24 PM 80.5°F26.9°C 63.3°F17.4°C 56% 3.0 mph WSW4.8 kmh WSW 7.4 mph11.9 kmh 30.04 in1017.3 mb 0.00 in0.0 mm 0.00 in0.0 mm 0.00 in0.0 mm
01:19 PM 80.3°F26.8°C 63.1°F17.3°C 56% 4.5 mph W7.2 kmh W 7.6 mph12.2 kmh 30.04 in1017.3 mb 0.00 in0.0 mm 0.00 in0.0 mm 0.00 in0.0 mm
01:14 PM 81.0°F27.2°C 63.3°F17.4°C 55% 4.7 mph W7.6 kmh W 9.4 mph15.1 kmh 30.04 in1017.3 mb 0.00 in0.0 mm 0.00 in0.0 mm 0.00 in0.0 mm
01:09 PM 81.0°F27.2°C 63.3°F17.4°C 55% 6.0 mph SW9.7 kmh SW 9.4 mph15.1 kmh 30.04 in1017.3 mb 0.00 in0.0 mm 0.00 in0.0 mm 0.00 in0.0 mm
01:04 PM 80.6°F27.0°C 64.4°F18.0°C 58% 3.5 mph WNW5.6 kmh WNW 8.7 mph14.0 kmh 30.04 in1017.3 mb 0.00 in0.0 mm 0.00 in0.0 mm 0.00 in0.0 mm
12:59 PM 79.6°F26.4°C 64.0°F17.8°C 59% 4.2 mph W6.8 kmh W 7.8 mph12.6 kmh 30.04 in1017.3 mb 0.00 in0.0 mm 0.00 in0.0 mm 0.00 in0.0 mm
12:54 PM 79.2°F26.2°C 63.2°F17.3°C 58% 4.3 mph WSW6.9 kmh WSW 8.1 mph13.0 kmh 30.04 in1017.3 mb 0.00 in0.0 mm 0.00 in0.0 mm 0.00 in0.0 mm
12:49 PM 80.1°F26.7°C 63.5°F17.5°C 57% 3.3 mph W5.3 kmh W 8.1 mph13.0 kmh 30.05 in1017.6 mb 0.00 in0.0 mm 0.00 in0.0 mm 0.00 in0.0 mm
12:44 PM 80.6°F27.0°C 63.5°F17.5°C 56% 4.6 mph WSW7.4 kmh WSW 7.6 mph12.2 kmh 30.05 in1017.6 mb 0.00 in0.0 mm 0.00 in0.0 mm 0.00 in0.0 mm
12:39 PM 80.3°F26.8°C 63.6°F17.6°C 57% 3.5 mph WNW5.6 kmh WNW 5.4 mph8.7 kmh 30.05 in1017.6 mb 0.00 in0.0 mm 0.00 in0.0 mm 0.00 in0.0 mm
12:34 PM 79.6°F26.4°C 64.0°F17.8°C 59% 2.9 mph W4.7 kmh W 7.8 mph12.6 kmh 30.05 in1017.6 mb 0.00 in0.0 mm 0.00 in0.0 mm 0.00 in0.0 mm
12:29 PM 78.8°F26.0°C 63.4°F17.4°C 59% 3.1 mph W5.0 kmh W 7.8 mph12.6 kmh 30.05 in1017.6 mb 0.00 in0.0 mm 0.00 in0.0 mm 0.00 in0.0 mm
12:24 PM 78.8°F26.0°C 64.4°F18.0°C 61% 3.2 mph WNW5.1 kmh WNW 7.4 mph11.9 kmh 30.05 in1017.6 mb 0.00 in0.0 mm 0.00 in0.0 mm 0.00 in0.0 mm
12:19 PM 78.8°F26.0°C 63.9°F17.7°C 60% 3.4 mph W5.5 kmh W 7.4 mph11.9 kmh 30.05 in1017.6 mb 0.00 in0.0 mm 0.00 in0.0 mm 0.00 in0.0 mm
12:14 PM 78.1°F25.6°C 63.2°F17.3°C 60% 2.2 mph SW3.5 kmh SW 7.4 mph11.9 kmh 30.05 in1017.6 mb 0.00 in0.0 mm 0.00 in0.0 mm 0.00 in0.0 mm
12:09 PM 78.1°F25.6°C 63.2°F17.3°C 60% 3.7 mph NNW6.0 kmh NNW 9.4 mph15.1 kmh 30.05 in1017.6 mb 0.00 in0.0 mm 0.00 in0.0 mm 0.00 in0.0 mm
12:04 PM 78.1°F25.6°C 63.6°F17.6°C 61% 4.3 mph WSW6.9 kmh WSW 9.6 mph15.4 kmh 30.05 in1017.6 mb 0.00 in0.0 mm 0.00 in0.0 mm 0.00 in0.0 mm
11:59 AM 77.8°F25.4°C 63.3°F17.4°C 61% 5.4 mph W8.7 kmh W 9.6 mph15.4 kmh 30.05 in1017.6 mb 0.00 in0.0 mm 0.00 in0.0 mm 0.00 in0.0 mm
11:54 AM 78.1°F25.6°C 63.2°F17.3°C 60% 5.0 mph WNW8.0 kmh WNW 8.5 mph13.7 kmh 30.05 in1017.6 mb 0.00 in0.0 mm 0.00 in0.0 mm 0.00 in0.0 mm
11:49 AM 79.0°F26.1°C 64.1°F17.8°C 60% 3.2 mph NW5.1 kmh NW 7.4 mph11.9 kmh 30.06 in1017.9 mb 0.00 in0.0 mm 0.00 in0.0 mm 0.00 in0.0 mm
11:43 AM 79.2°F26.2°C 64.6°F18.1°C 61% 3.1 mph NW5.0 kmh NW 8.3 mph13.4 kmh 30.06 in1017.9 mb 0.00 in0.0 mm 0.00 in0.0 mm 0.00 in0.0 mm
11:37 AM 78.3°F25.7°C 64.3°F17.9°C 62% 5.0 mph WSW8.0 kmh WSW 8.3 mph13.4 kmh 30.06 in1017.9 mb 0.00 in0.0 mm 0.00 in0.0 mm 0.00 in0.0 mm
11:32 AM 76.3°F24.6°C 63.6°F17.6°C 65% 3.0 mph WSW4.8 kmh WSW 7.6 mph12.2 kmh 30.06 in1017.9 mb 0.00 in0.0 mm 0.00 in0.0 mm 0.00 in0.0 mm
11:27 AM 75.2°F24.0°C 63.1°F17.3°C 66% 4.3 mph W6.9 kmh W 7.6 mph12.2 kmh 30.06 in1017.9 mb 0.00 in0.0 mm 0.00 in0.0 mm 0.00 in0.0 mm
11:22 AM 74.9°F23.8°C 62.7°F17.1°C 66% 3.5 mph NW5.6 kmh NW 6.5 mph10.5 kmh 30.07 in1018.3 mb 0.00 in0.0 mm 0.00 in0.0 mm 0.00 in0.0 mm
11:17 AM 75.2°F24.0°C 62.6°F17.0°C 65% 5.0 mph WSW8.0 kmh WSW 6.5 mph10.5 kmh 30.07 in1018.3 mb 0.00 in0.0 mm 0.00 in0.0 mm 0.00 in0.0 mm
11:12 AM 74.9°F23.8°C 62.7°F17.1°C 66% 4.6 mph W7.4 kmh W 6.5 mph10.5 kmh 30.07 in1018.3 mb 0.00 in0.0 mm 0.00 in0.0 mm 0.00 in0.0 mm
11:07 AM 74.5°F23.6°C 62.4°F16.9°C 66% 3.8 mph W6.1 kmh W 9.2 mph14.8 kmh 30.07 in1018.3 mb 0.00 in0.0 mm 0.00 in0.0 mm 0.00 in0.0 mm
11:02 AM 73.8°F23.2°C 62.7°F17.1°C 68% 4.1 mph NW6.6 kmh NW 9.2 mph14.8 kmh 30.07 in1018.3 mb 0.00 in0.0 mm 0.00 in0.0 mm 0.00 in0.0 mm
10:56 AM 73.1°F22.8°C 61.9°F16.6°C 68% 5.8 mph WSW9.3 kmh WSW 7.2 mph11.6 kmh 30.07 in1018.3 mb 0.00 in0.0 mm 0.00 in0.0 mm 0.00 in0.0 mm
10:51 AM 72.7°F22.6°C 61.6°F16.4°C 68% 4.2 mph SW6.8 kmh SW 6.9 mph11.1 kmh 30.07 in1018.3 mb 0.00 in0.0 mm 0.00 in0.0 mm 0.00 in0.0 mm
10:46 AM 72.4°F22.4°C 61.7°F16.5°C 69% 2.2 mph WSW3.5 kmh WSW 7.6 mph12.2 kmh 30.07 in1018.3 mb 0.00 in0.0 mm 0.00 in0.0 mm 0.00 in0.0 mm
10:41 AM 72.4°F22.4°C 61.7°F16.5°C 69% 4.9 mph WNW7.9 kmh WNW 7.6 mph12.2 kmh 30.07 in1018.3 mb 0.00 in0.0 mm 0.00 in0.0 mm 0.00 in0.0 mm
10:36 AM 72.2°F22.3°C 62.3°F16.8°C 71% 2.6 mph WSW4.2 kmh WSW 6.5 mph10.5 kmh 30.07 in1018.3 mb 0.00 in0.0 mm 0.00 in0.0 mm 0.00 in0.0 mm
10:31 AM 71.6°F22.0°C 61.4°F16.3°C 70% 2.9 mph W4.7 kmh W 6.5 mph10.5 kmh 30.07 in1018.3 mb 0.00 in0.0 mm 0.00 in0.0 mm 0.00 in0.0 mm
10:26 AM 71.8°F22.1°C 61.6°F16.4°C 70% 2.6 mph WSW4.2 kmh WSW 8.1 mph13.0 kmh 30.07 in1018.3 mb 0.00 in0.0 mm 0.00 in0.0 mm 0.00 in0.0 mm
10:21 AM 72.2°F22.3°C 61.5°F16.4°C 69% 2.9 mph NW4.7 kmh NW 8.1 mph13.0 kmh 30.07 in1018.3 mb 0.00 in0.0 mm 0.00 in0.0 mm 0.00 in0.0 mm
10:16 AM 72.9°F22.7°C 61.7°F16.5°C 68% 4.3 mph WSW6.9 kmh WSW 6.0 mph9.7 kmh 30.07 in1018.3 mb 0.00 in0.0 mm 0.00 in0.0 mm 0.00 in0.0 mm
10:11 AM 72.9°F22.7°C 62.6°F17.0°C 70% 3.1 mph W5.0 kmh W 6.5 mph10.5 kmh 30.07 in1018.3 mb 0.00 in0.0 mm 0.00 in0.0 mm 0.00 in0.0 mm
10:06 AM 71.8°F22.1°C 61.6°F16.4°C 70% 2.5 mph NNE4.0 kmh NNE 7.8 mph12.6 kmh 30.08 in1018.6 mb 0.00 in0.0 mm 0.00 in0.0 mm 0.00 in0.0 mm
10:01 AM 71.3°F21.8°C 61.0°F16.1°C 70% 2.6 mph WNW4.2 kmh WNW 7.8 mph12.6 kmh 30.08 in1018.6 mb 0.00 in0.0 mm 0.00 in0.0 mm 0.00 in0.0 mm
09:56 AM 71.1°F21.7°C 61.6°F16.4°C 72% 2.1 mph W3.4 kmh W 4.0 mph6.4 kmh 30.07 in1018.3 mb 0.00 in0.0 mm 0.00 in0.0 mm 0.00 in0.0 mm
09:51 AM 70.0°F21.1°C 60.5°F15.8°C 72% 2.2 mph WSW3.5 kmh WSW 4.7 mph7.6 kmh 30.07 in1018.3 mb 0.00 in0.0 mm 0.00 in0.0 mm 0.00 in0.0 mm
09:46 AM 69.5°F20.8°C 60.0°F15.6°C 72% 3.3 mph WNW5.3 kmh WNW 4.7 mph7.6 kmh 30.07 in1018.3 mb 0.00 in0.0 mm 0.00 in0.0 mm 0.00 in0.0 mm
09:41 AM 69.1°F20.6°C 60.0°F15.6°C 73% 2.6 mph WSW4.2 kmh WSW 7.6 mph12.2 kmh 30.07 in1018.3 mb 0.00 in0.0 mm 0.00 in0.0 mm 0.00 in0.0 mm
09:36 AM 68.9°F20.5°C 59.5°F15.3°C 72% 3.8 mph W6.1 kmh W 7.6 mph12.2 kmh 30.08 in1018.6 mb 0.00 in0.0 mm 0.00 in0.0 mm 0.00 in0.0 mm
09:31 AM 69.1°F20.6°C 59.7°F15.4°C 72% 2.6 mph W4.2 kmh W 7.4 mph11.9 kmh 30.08 in1018.6 mb 0.00 in0.0 mm 0.00 in0.0 mm 0.00 in0.0 mm
09:26 AM 69.1°F20.6°C 60.0°F15.6°C 73% 2.6 mph W4.2 kmh W 6.3 mph10.1 kmh 30.07 in1018.3 mb 0.00 in0.0 mm 0.00 in0.0 mm 0.00 in0.0 mm
09:21 AM 68.9°F20.5°C 59.5°F15.3°C 72% 3.6 mph W5.8 kmh W 6.3 mph10.1 kmh 30.07 in1018.3 mb 0.00 in0.0 mm 0.00 in0.0 mm 0.00 in0.0 mm
09:16 AM 68.8°F20.4°C 59.4°F15.2°C 72% 2.4 mph W3.9 kmh W 6.3 mph10.1 kmh 30.07 in1018.3 mb 0.00 in0.0 mm 0.00 in0.0 mm 0.00 in0.0 mm
09:11 AM 68.8°F20.4°C 59.4°F15.2°C 72% 2.2 mph NW3.5 kmh NW 6.3 mph10.1 kmh 30.08 in1018.6 mb 0.00 in0.0 mm 0.00 in0.0 mm 0.00 in0.0 mm
09:06 AM 68.9°F20.5°C 59.5°F15.3°C 72% 3.5 mph SW5.6 kmh SW 6.9 mph11.1 kmh 30.08 in1018.6 mb 0.00 in0.0 mm 0.00 in0.0 mm 0.00 in0.0 mm
09:01 AM 68.4°F20.2°C 59.4°F15.2°C 73% 4.6 mph SW7.4 kmh SW 6.9 mph11.1 kmh 30.08 in1018.6 mb 0.00 in0.0 mm 0.00 in0.0 mm 0.00 in0.0 mm
08:56 AM 68.0°F20.0°C 59.5°F15.3°C 74% 3.2 mph W5.1 kmh W 7.8 mph12.6 kmh 30.07 in1018.3 mb 0.00 in0.0 mm 0.00 in0.0 mm 0.00 in0.0 mm
08:51 AM 68.0°F20.0°C 59.5°F15.3°C 74% 3.2 mph WNW5.1 kmh WNW 8.5 mph13.7 kmh 30.07 in1018.3 mb 0.00 in0.0 mm 0.00 in0.0 mm 0.00 in0.0 mm
08:46 AM 67.9°F19.9°C 59.3°F15.2°C 74% 2.2 mph SW3.5 kmh SW 8.5 mph13.7 kmh 30.07 in1018.3 mb 0.00 in0.0 mm 0.00 in0.0 mm 0.00 in0.0 mm
08:41 AM 68.2°F20.1°C 59.7°F15.4°C 74% 3.3 mph WSW5.3 kmh WSW 8.3 mph13.4 kmh 30.07 in1018.3 mb 0.00 in0.0 mm 0.00 in0.0 mm 0.00 in0.0 mm
08:36 AM 67.7°F19.8°C 59.5°F15.3°C 75% 3.5 mph W5.6 kmh W 8.5 mph13.7 kmh 30.07 in1018.3 mb 0.00 in0.0 mm 0.00 in0.0 mm 0.00 in0.0 mm
08:31 AM 67.3°F19.6°C 59.1°F15.1°C 75% 4.9 mph WSW7.9 kmh WSW 8.5 mph13.7 kmh 30.07 in1018.3 mb 0.00 in0.0 mm 0.00 in0.0 mm 0.00 in0.0 mm
08:26 AM 66.6°F19.2°C 59.1°F15.1°C 77% 4.5 mph NW7.2 kmh NW 6.9 mph11.1 kmh 30.07 in1018.3 mb 0.00 in0.0 mm 0.00 in0.0 mm 0.00 in0.0 mm
08:21 AM 66.2°F19.0°C 59.2°F15.1°C 78% 3.6 mph W5.8 kmh W 6.7 mph10.8 kmh 30.07 in1018.3 mb 0.00 in0.0 mm 0.00 in0.0 mm 0.00 in0.0 mm
08:16 AM 65.3°F18.5°C 58.7°F14.8°C 79% 3.4 mph W5.5 kmh W 8.5 mph13.7 kmh 30.06 in1017.9 mb 0.00 in0.0 mm 0.00 in0.0 mm 0.00 in0.0 mm
08:11 AM 64.8°F18.2°C 58.5°F14.7°C 80% 4.3 mph WSW6.9 kmh WSW 8.5 mph13.7 kmh 30.07 in1018.3 mb 0.00 in0.0 mm 0.00 in0.0 mm 0.00 in0.0 mm
08:06 AM 64.1°F17.8°C 57.8°F14.3°C 80% 4.4 mph W7.1 kmh W 9.2 mph14.8 kmh 30.07 in1018.3 mb 0.00 in0.0 mm 0.00 in0.0 mm 0.00 in0.0 mm
08:01 AM 63.4°F17.4°C 57.4°F14.1°C 81% 3.9 mph W6.3 kmh W 9.2 mph14.8 kmh 30.07 in1018.3 mb 0.00 in0.0 mm 0.00 in0.0 mm 0.00 in0.0 mm
07:56 AM 63.0°F17.2°C 57.1°F13.9°C 81% 5.1 mph NW8.2 kmh NW 9.2 mph14.8 kmh 30.06 in1017.9 mb 0.00 in0.0 mm 0.00 in0.0 mm 0.00 in0.0 mm
07:51 AM 63.0°F17.2°C 57.1°F13.9°C 81% 4.8 mph WNW7.7 kmh WNW 6.7 mph10.8 kmh 30.07 in1018.3 mb 0.00 in0.0 mm 0.00 in0.0 mm 0.00 in0.0 mm
07:46 AM 62.5°F16.9°C 56.9°F13.8°C 82% 4.0 mph NW6.4 kmh NW 8.5 mph13.7 kmh 30.07 in1018.3 mb 0.00 in0.0 mm 0.00 in0.0 mm 0.00 in0.0 mm
07:41 AM 61.9°F16.6°C 56.3°F13.5°C 82% 4.7 mph WSW7.6 kmh WSW 8.5 mph13.7 kmh 30.06 in1017.9 mb 0.00 in0.0 mm 0.00 in0.0 mm 0.00 in0.0 mm
07:36 AM 61.7°F16.5°C 56.5°F13.6°C 83% 4.4 mph W7.1 kmh W 12.1 mph19.5 kmh 30.06 in1017.9 mb 0.00 in0.0 mm 0.00 in0.0 mm 0.00 in0.0 mm
07:31 AM 61.6°F16.4°C 56.3°F13.5°C 83% 2.9 mph SW4.7 kmh SW 12.1 mph19.5 kmh 30.06 in1017.9 mb 0.00 in0.0 mm 0.00 in0.0 mm 0.00 in0.0 mm
07:26 AM 61.6°F16.4°C 56.3°F13.5°C 83% 6.2 mph W10.0 kmh W 8.5 mph13.7 kmh 30.06 in1017.9 mb 0.00 in0.0 mm 0.00 in0.0 mm 0.00 in0.0 mm
07:21 AM 61.6°F16.4°C 56.3°F13.5°C 83% 4.7 mph WSW7.6 kmh WSW 6.9 mph11.1 kmh 30.06 in1017.9 mb 0.00 in0.0 mm 0.00 in0.0 mm 0.00 in0.0 mm
07:16 AM 61.6°F16.4°C 56.3°F13.5°C 83% 4.4 mph W7.1 kmh W 7.6 mph12.2 kmh 30.06 in1017.9 mb 0.00 in0.0 mm 0.00 in0.0 mm 0.00 in0.0 mm
07:11 AM 61.4°F16.3°C 56.2°F13.4°C 83% 3.8 mph WSW6.1 kmh WSW 8.1 mph13.0 kmh 30.06 in1017.9 mb 0.00 in0.0 mm 0.00 in0.0 mm 0.00 in0.0 mm
07:06 AM 61.6°F16.4°C 56.3°F13.5°C 83% 3.4 mph W5.5 kmh W 8.5 mph13.7 kmh 30.06 in1017.9 mb 0.00 in0.0 mm 0.00 in0.0 mm 0.00 in0.0 mm
07:01 AM 61.9°F16.6°C 56.3°F13.5°C 82% 5.5 mph W8.9 kmh W 8.5 mph13.7 kmh 30.06 in1017.9 mb 0.00 in0.0 mm 0.00 in0.0 mm 0.00 in0.0 mm
06:56 AM 62.1°F16.7°C 56.5°F13.6°C 82% 3.6 mph W5.8 kmh W 7.6 mph12.2 kmh 30.06 in1017.9 mb 0.00 in0.0 mm 0.00 in0.0 mm 0.00 in0.0 mm
06:51 AM 62.1°F16.7°C 56.9°F13.8°C 83% 3.8 mph WNW6.1 kmh WNW 7.6 mph12.2 kmh 30.06 in1017.9 mb 0.00 in0.0 mm 0.00 in0.0 mm 0.00 in0.0 mm
06:46 AM 62.3°F16.8°C 57.1°F13.9°C 83% 3.3 mph W5.3 kmh W 4.9 mph7.9 kmh 30.06 in1017.9 mb 0.00 in0.0 mm 0.00 in0.0 mm 0.00 in0.0 mm
06:41 AM 62.3°F16.8°C 57.1°F13.9°C 83% 2.1 mph NW3.4 kmh NW 4.9 mph7.9 kmh 30.05 in1017.6 mb 0.00 in0.0 mm 0.00 in0.0 mm 0.00 in0.0 mm
06:36 AM 62.3°F16.8°C 57.1°F13.9°C 83% 1.4 mph W2.3 kmh W 5.6 mph9.0 kmh 30.05 in1017.6 mb 0.00 in0.0 mm 0.00 in0.0 mm 0.00 in0.0 mm
06:31 AM 62.5°F16.9°C 57.3°F14.1°C 83% 3.6 mph WSW5.8 kmh WSW 5.6 mph9.0 kmh 30.06 in1017.9 mb 0.00 in0.0 mm 0.00 in0.0 mm 0.00 in0.0 mm
06:26 AM 62.8°F17.1°C 57.5°F14.2°C 83% 2.0 mph SW3.2 kmh SW 5.8 mph9.3 kmh 30.05 in1017.6 mb 0.00 in0.0 mm 0.00 in0.0 mm 0.00 in0.0 mm
06:21 AM 63.0°F17.2°C 58.1°F14.5°C 84% 2.7 mph W4.3 kmh W 5.8 mph9.3 kmh 30.05 in1017.6 mb 0.00 in0.0 mm 0.00 in0.0 mm 0.00 in0.0 mm
06:16 AM 63.0°F17.2°C 58.4°F14.7°C 85% 2.5 mph WSW4.0 kmh WSW 5.8 mph9.3 kmh 30.04 in1017.3 mb 0.00 in0.0 mm 0.00 in0.0 mm 0.00 in0.0 mm
06:11 AM 62.8°F17.1°C 58.6°F14.8°C 86% 3.4 mph WSW5.5 kmh WSW 7.4 mph11.9 kmh 30.04 in1017.3 mb 0.00 in0.0 mm 0.00 in0.0 mm 0.00 in0.0 mm
06:06 AM 62.6°F17.0°C 58.4°F14.7°C 86% 3.2 mph W5.1 kmh W 7.4 mph11.9 kmh 30.04 in1017.3 mb 0.00 in0.0 mm 0.00 in0.0 mm 0.00 in0.0 mm
06:01 AM 62.1°F16.7°C 58.2°F14.6°C 87% 2.1 mph W3.4 kmh W 5.1 mph8.2 kmh 30.04 in1017.3 mb 0.00 in0.0 mm 0.00 in0.0 mm 0.00 in0.0 mm
05:56 AM 61.7°F16.5°C 57.9°F14.4°C 87% 2.7 mph W4.3 kmh W 5.4 mph8.7 kmh 30.04 in1017.3 mb 0.00 in0.0 mm 0.00 in0.0 mm 0.00 in0.0 mm
05:51 AM 61.4°F16.3°C 57.5°F14.2°C 87% 2.8 mph WSW4.5 kmh WSW 6.3 mph10.1 kmh 30.04 in1017.3 mb 0.00 in0.0 mm 0.00 in0.0 mm 0.00 in0.0 mm
05:46 AM 60.8°F16.0°C 57.3°F14.1°C 88% 3.8 mph W6.1 kmh W 6.3 mph10.1 kmh 30.05 in1017.6 mb 0.00 in0.0 mm 0.00 in0.0 mm 0.00 in0.0 mm
05:41 AM 60.1°F15.6°C 56.6°F13.7°C 88% 4.6 mph W7.4 kmh W 7.6 mph12.2 kmh 30.05 in1017.6 mb 0.00 in0.0 mm 0.00 in0.0 mm 0.00 in0.0 mm
05:36 AM 59.8°F15.4°C 56.3°F13.5°C 88% 4.3 mph WSW6.9 kmh WSW 7.6 mph12.2 kmh 30.04 in1017.3 mb 0.00 in0.0 mm 0.00 in0.0 mm 0.00 in0.0 mm
05:31 AM 59.4°F15.2°C 55.5°F13.1°C 87% 3.3 mph WSW5.3 kmh WSW 7.6 mph12.2 kmh 30.04 in1017.3 mb 0.00 in0.0 mm 0.00 in0.0 mm 0.00 in0.0 mm
05:26 AM 59.4°F15.2°C 55.5°F13.1°C 87% 4.2 mph WSW6.8 kmh WSW 7.6 mph12.2 kmh 30.04 in1017.3 mb 0.00 in0.0 mm 0.00 in0.0 mm 0.00 in0.0 mm
05:21 AM 59.2°F15.1°C 55.4°F13.0°C 87% 4.7 mph W7.6 kmh W 7.2 mph11.6 kmh 30.04 in1017.3 mb 0.00 in0.0 mm 0.00 in0.0 mm 0.00 in0.0 mm
05:16 AM 59.0°F15.0°C 55.2°F12.9°C 87% 3.6 mph W5.8 kmh W 7.2 mph11.6 kmh 30.04 in1017.3 mb 0.00 in0.0 mm 0.00 in0.0 mm 0.00 in0.0 mm
05:11 AM 59.0°F15.0°C 55.2°F12.9°C 87% 2.1 mph WSW3.4 kmh WSW 6.3 mph10.1 kmh 30.03 in1016.9 mb 0.00 in0.0 mm 0.00 in0.0 mm 0.00 in0.0 mm
05:06 AM 59.0°F15.0°C 55.2°F12.9°C 87% 4.2 mph W6.8 kmh W 6.3 mph10.1 kmh 30.03 in1016.9 mb 0.00 in0.0 mm 0.00 in0.0 mm 0.00 in0.0 mm
05:01 AM 59.0°F15.0°C 55.2°F12.9°C 87% 3.1 mph SW5.0 kmh SW 5.6 mph9.0 kmh 30.03 in1016.9 mb 0.00 in0.0 mm 0.00 in0.0 mm 0.00 in0.0 mm
04:56 AM 59.0°F15.0°C 55.2°F12.9°C 87% 3.4 mph W5.5 kmh W 6.9 mph11.1 kmh 30.03 in1016.9 mb 0.00 in0.0 mm 0.00 in0.0 mm 0.00 in0.0 mm
04:51 AM 59.0°F15.0°C 55.2°F12.9°C 87% 4.0 mph WSW6.4 kmh WSW 6.9 mph11.1 kmh 30.04 in1017.3 mb 0.00 in0.0 mm 0.00 in0.0 mm 0.00 in0.0 mm
04:46 AM 59.0°F15.0°C 55.2°F12.9°C 87% 2.2 mph SE3.5 kmh SE 5.8 mph9.3 kmh 30.04 in1017.3 mb 0.00 in0.0 mm 0.00 in0.0 mm 0.00 in0.0 mm
04:41 AM 59.0°F15.0°C 55.2°F12.9°C 87% 3.1 mph W5.0 kmh W 5.8 mph9.3 kmh 30.04 in1017.3 mb 0.00 in0.0 mm 0.00 in0.0 mm 0.00 in0.0 mm
04:36 AM 59.0°F15.0°C 55.2°F12.9°C 87% 5.1 mph WSW8.2 kmh WSW 5.8 mph9.3 kmh 30.04 in1017.3 mb 0.00 in0.0 mm 0.00 in0.0 mm 0.00 in0.0 mm
04:31 AM 59.0°F15.0°C 55.2°F12.9°C 87% 3.7 mph W6.0 kmh W 6.7 mph10.8 kmh 30.04 in1017.3 mb 0.00 in0.0 mm 0.00 in0.0 mm 0.00 in0.0 mm
04:26 AM 59.0°F15.0°C 55.2°F12.9°C 87% 3.5 mph W5.6 kmh W 6.7 mph10.8 kmh 30.04 in1017.3 mb 0.00 in0.0 mm 0.00 in0.0 mm 0.00 in0.0 mm
04:21 AM 59.2°F15.1°C 55.4°F13.0°C 87% 2.3 mph WNW3.7 kmh WNW 7.2 mph11.6 kmh 30.04 in1017.3 mb 0.00 in0.0 mm 0.00 in0.0 mm 0.00 in0.0 mm
04:16 AM 59.4°F15.2°C 55.5°F13.1°C 87% 5.2 mph WSW8.4 kmh WSW 7.2 mph11.6 kmh 30.04 in1017.3 mb 0.00 in0.0 mm 0.00 in0.0 mm 0.00 in0.0 mm
04:11 AM 59.4°F15.2°C 55.5°F13.1°C 87% 3.0 mph WSW4.8 kmh WSW 8.3 mph13.4 kmh 30.04 in1017.3 mb 0.00 in0.0 mm 0.00 in0.0 mm 0.00 in0.0 mm
04:06 AM 59.6°F15.3°C 55.7°F13.2°C 87% 3.7 mph WSW6.0 kmh WSW 8.3 mph13.4 kmh 30.04 in1017.3 mb 0.00 in0.0 mm 0.00 in0.0 mm 0.00 in0.0 mm
04:01 AM 59.6°F15.3°C 55.7°F13.2°C 87% 3.9 mph SW6.3 kmh SW 7.8 mph12.6 kmh 30.04 in1017.3 mb 0.00 in0.0 mm 0.00 in0.0 mm 0.00 in0.0 mm
03:55 AM 59.6°F15.3°C 55.7°F13.2°C 87% 5.0 mph W8.0 kmh W 6.9 mph11.1 kmh 30.04 in1017.3 mb 0.00 in0.0 mm 0.00 in0.0 mm 0.00 in0.0 mm
03:50 AM 59.4°F15.2°C 55.5°F13.1°C 87% 3.5 mph WSW5.6 kmh WSW 6.3 mph10.1 kmh 30.04 in1017.3 mb 0.00 in0.0 mm 0.00 in0.0 mm 0.00 in0.0 mm
03:45 AM 59.4°F15.2°C 55.9°F13.3°C 88% 5.4 mph WSW8.7 kmh WSW 6.5 mph10.5 kmh 30.03 in1016.9 mb 0.00 in0.0 mm 0.00 in0.0 mm 0.00 in0.0 mm
03:40 AM 59.2°F15.1°C 55.4°F13.0°C 87% 3.1 mph W5.0 kmh W 6.5 mph10.5 kmh 30.03 in1016.9 mb 0.00 in0.0 mm 0.00 in0.0 mm 0.00 in0.0 mm
03:35 AM 59.2°F15.1°C 55.4°F13.0°C 87% 3.3 mph W5.3 kmh W 5.8 mph9.3 kmh 30.03 in1016.9 mb 0.00 in0.0 mm 0.00 in0.0 mm 0.00 in0.0 mm
03:30 AM 59.2°F15.1°C 55.4°F13.0°C 87% 3.1 mph WSW5.0 kmh WSW 5.1 mph8.2 kmh 30.03 in1016.9 mb 0.00 in0.0 mm 0.00 in0.0 mm 0.00 in0.0 mm
03:25 AM 59.0°F15.0°C 55.2°F12.9°C 87% 2.2 mph W3.5 kmh W 5.4 mph8.7 kmh 30.04 in1017.3 mb 0.00 in0.0 mm 0.00 in0.0 mm 0.00 in0.0 mm
03:20 AM 58.9°F14.9°C 55.0°F12.8°C 87% 1.5 mph ENE2.4 kmh ENE 5.4 mph8.7 kmh 30.04 in1017.3 mb 0.00 in0.0 mm 0.00 in0.0 mm 0.00 in0.0 mm
03:15 AM 58.7°F14.8°C 54.8°F12.7°C 87% 2.6 mph WNW4.2 kmh WNW 3.6 mph5.8 kmh 30.04 in1017.3 mb 0.00 in0.0 mm 0.00 in0.0 mm 0.00 in0.0 mm
03:10 AM 58.7°F14.8°C 54.6°F12.6°C 86% 1.8 mph WNW2.9 kmh WNW 3.4 mph5.5 kmh 30.04 in1017.3 mb 0.00 in0.0 mm 0.00 in0.0 mm 0.00 in0.0 mm
03:05 AM 58.7°F14.8°C 54.6°F12.6°C 86% 1.9 mph N3.1 kmh N 5.1 mph8.2 kmh 30.04 in1017.3 mb 0.00 in0.0 mm 0.00 in0.0 mm 0.00 in0.0 mm
03:00 AM 58.7°F14.8°C 54.2°F12.3°C 85% 1.6 mph WNW2.6 kmh WNW 5.1 mph8.2 kmh 30.04 in1017.3 mb 0.00 in0.0 mm 0.00 in0.0 mm 0.00 in0.0 mm
02:55 AM 58.9°F14.9°C 54.4°F12.4°C 85% 2.0 mph NW3.2 kmh NW 4.5 mph7.2 kmh 30.04 in1017.3 mb 0.00 in0.0 mm 0.00 in0.0 mm 0.00 in0.0 mm
02:50 AM 58.9°F14.9°C 54.4°F12.4°C 85% 2.7 mph SW4.3 kmh SW 4.5 mph7.2 kmh 30.05 in1017.6 mb 0.00 in0.0 mm 0.00 in0.0 mm 0.00 in0.0 mm
02:45 AM 59.0°F15.0°C 54.2°F12.3°C 84% 2.0 mph SW3.2 kmh SW 4.7 mph7.6 kmh 30.05 in1017.6 mb 0.00 in0.0 mm 0.00 in0.0 mm 0.00 in0.0 mm
02:40 AM 59.2°F15.1°C 54.7°F12.6°C 85% 3.1 mph WSW5.0 kmh WSW 4.7 mph7.6 kmh 30.05 in1017.6 mb 0.00 in0.0 mm 0.00 in0.0 mm 0.00 in0.0 mm
02:35 AM 59.4°F15.2°C 54.5°F12.5°C 84% 2.5 mph WNW4.0 kmh WNW 4.3 mph6.9 kmh 30.05 in1017.6 mb 0.00 in0.0 mm 0.00 in0.0 mm 0.00 in0.0 mm
02:30 AM 59.8°F15.4°C 54.9°F12.7°C 84% 2.4 mph NNE3.9 kmh NNE 4.0 mph6.4 kmh 30.06 in1017.9 mb 0.00 in0.0 mm 0.00 in0.0 mm 0.00 in0.0 mm
02:25 AM 59.8°F15.4°C 54.9°F12.7°C 84% 2.4 mph WSW3.9 kmh WSW 6.0 mph9.7 kmh 30.06 in1017.9 mb 0.00 in0.0 mm 0.00 in0.0 mm 0.00 in0.0 mm
02:20 AM 60.1°F15.6°C 55.0°F12.8°C 83% 2.3 mph SSW3.7 kmh SSW 6.0 mph9.7 kmh 30.06 in1017.9 mb 0.00 in0.0 mm 0.00 in0.0 mm 0.00 in0.0 mm
02:15 AM 60.5°F15.8°C 55.4°F13.0°C 83% 1.9 mph W3.1 kmh W 7.8 mph12.6 kmh 30.06 in1017.9 mb 0.00 in0.0 mm 0.00 in0.0 mm 0.00 in0.0 mm
02:10 AM 61.0°F16.1°C 55.9°F13.3°C 83% 2.8 mph WSW4.5 kmh WSW 7.8 mph12.6 kmh 30.06 in1017.9 mb 0.00 in0.0 mm 0.00 in0.0 mm 0.00 in0.0 mm
02:05 AM 61.0°F16.1°C 56.5°F13.6°C 85% 4.7 mph WSW7.6 kmh WSW 7.6 mph12.2 kmh 30.06 in1017.9 mb 0.00 in0.0 mm 0.00 in0.0 mm 0.00 in0.0 mm
02:00 AM 60.8°F16.0°C 56.3°F13.5°C 85% 4.9 mph SW7.9 kmh SW 7.6 mph12.2 kmh 30.06 in1017.9 mb 0.00 in0.0 mm 0.00 in0.0 mm 0.00 in0.0 mm
01:55 AM 60.7°F15.9°C 55.8°F13.2°C 84% 4.0 mph WSW6.4 kmh WSW 5.4 mph8.7 kmh 30.06 in1017.9 mb 0.00 in0.0 mm 0.00 in0.0 mm 0.00 in0.0 mm
01:50 AM 60.5°F15.8°C 55.6°F13.1°C 84% 4.1 mph W6.6 kmh W 6.0 mph9.7 kmh 30.06 in1017.9 mb 0.00 in0.0 mm 0.00 in0.0 mm 0.00 in0.0 mm
01:45 AM 60.5°F15.8°C 55.6°F13.1°C 84% 3.1 mph W5.0 kmh W 6.0 mph9.7 kmh 30.07 in1018.3 mb 0.00 in0.0 mm 0.00 in0.0 mm 0.00 in0.0 mm
01:40 AM 60.5°F15.8°C 55.6°F13.1°C 84% 4.1 mph W6.6 kmh W 6.7 mph10.8 kmh 30.07 in1018.3 mb 0.00 in0.0 mm 0.00 in0.0 mm 0.00 in0.0 mm
01:35 AM 60.5°F15.8°C 55.6°F13.1°C 84% 3.6 mph NW5.8 kmh NW 7.8 mph12.6 kmh 30.07 in1018.3 mb 0.00 in0.0 mm 0.00 in0.0 mm 0.00 in0.0 mm
01:30 AM 60.5°F15.8°C 55.6°F13.1°C 84% 4.7 mph WSW7.6 kmh WSW 7.8 mph12.6 kmh 30.07 in1018.3 mb 0.00 in0.0 mm 0.00 in0.0 mm 0.00 in0.0 mm
01:24 AM 60.5°F15.8°C 55.6°F13.1°C 84% 2.6 mph W4.2 kmh W 7.8 mph12.6 kmh 30.07 in1018.3 mb 0.00 in0.0 mm 0.00 in0.0 mm 0.00 in0.0 mm
01:19 AM 60.3°F15.7°C 55.4°F13.0°C 84% 3.6 mph WSW5.8 kmh WSW 7.2 mph11.6 kmh 30.07 in1018.3 mb 0.00 in0.0 mm 0.00 in0.0 mm 0.00 in0.0 mm
01:14 AM 60.1°F15.6°C 55.3°F12.9°C 84% 5.7 mph W9.2 kmh W 7.2 mph11.6 kmh 30.07 in1018.3 mb 0.00 in0.0 mm 0.00 in0.0 mm 0.00 in0.0 mm
01:09 AM 60.1°F15.6°C 55.0°F12.8°C 83% 2.8 mph SW4.5 kmh SW 4.9 mph7.9 kmh 30.08 in1018.6 mb 0.00 in0.0 mm 0.00 in0.0 mm 0.00 in0.0 mm
01:04 AM 60.1°F15.6°C 55.3°F12.9°C 84% 3.3 mph WSW5.3 kmh WSW 4.7 mph7.6 kmh 30.08 in1018.6 mb 0.00 in0.0 mm 0.00 in0.0 mm 0.00 in0.0 mm
12:59 AM 60.1°F15.6°C 55.0°F12.8°C 83% 1.7 mph WSW2.7 kmh WSW 3.6 mph5.8 kmh 30.08 in1018.6 mb 0.00 in0.0 mm 0.00 in0.0 mm 0.00 in0.0 mm
12:54 AM 60.1°F15.6°C 55.0°F12.8°C 83% 2.5 mph SW4.0 kmh SW 4.0 mph6.4 kmh 30.08 in1018.6 mb 0.00 in0.0 mm 0.00 in0.0 mm 0.00 in0.0 mm
12:49 AM 60.1°F15.6°C 55.0°F12.8°C 83% 2.4 mph WSW3.9 kmh WSW 4.0 mph6.4 kmh 30.08 in1018.6 mb 0.00 in0.0 mm 0.00 in0.0 mm 0.00 in0.0 mm
12:44 AM 59.9°F15.5°C 54.8°F12.7°C 83% 1.9 mph W3.1 kmh W 3.4 mph5.5 kmh 30.09 in1019.0 mb 0.00 in0.0 mm 0.00 in0.0 mm 0.00 in0.0 mm
12:39 AM 59.9°F15.5°C 54.5°F12.5°C 82% 1.8 mph WNW2.9 kmh WNW 2.7 mph4.3 kmh 30.08 in1018.6 mb 0.00 in0.0 mm 0.00 in0.0 mm 0.00 in0.0 mm
12:34 AM 59.8°F15.4°C 54.3°F12.4°C 82% 1.7 mph WSW2.7 kmh WSW 3.4 mph5.5 kmh 30.07 in1018.3 mb 0.00 in0.0 mm 0.00 in0.0 mm 0.00 in0.0 mm
12:29 AM 59.6°F15.3°C 54.1°F12.3°C 82% 1.1 mph SW1.8 kmh SW 3.4 mph5.5 kmh 30.08 in1018.6 mb 0.00 in0.0 mm 0.00 in0.0 mm 0.00 in0.0 mm
12:24 AM 59.4°F15.2°C 53.9°F12.2°C 82% 1.5 mph WSW2.4 kmh WSW 3.4 mph5.5 kmh 30.08 in1018.6 mb 0.00 in0.0 mm 0.00 in0.0 mm 0.00 in0.0 mm
12:19 AM 59.4°F15.2°C 53.7°F12.1°C 81% 0.7 mph WSW1.1 kmh WSW 2.7 mph4.3 kmh 30.08 in1018.6 mb 0.00 in0.0 mm 0.00 in0.0 mm 0.00 in0.0 mm
12:14 AM 59.4°F15.2°C 53.3°F11.8°C 80% 1.0 mph WNW1.6 kmh WNW 2.9 mph4.7 kmh 30.08 in1018.6 mb 0.00 in0.0 mm 0.00 in0.0 mm 0.00 in0.0 mm
12:09 AM 59.4°F15.2°C 53.3°F11.8°C 80% 2.0 mph SW3.2 kmh SW 2.9 mph4.7 kmh 30.09 in1019.0 mb 0.00 in0.0 mm 0.00 in0.0 mm 0.00 in0.0 mm
12:04 AM 59.6°F15.3°C 53.5°F11.9°C 80% 1.1 mph WSW1.8 kmh WSW 2.5 mph4.0 kmh 30.09 in1019.0 mb 0.00 in0.0 mm 0.00 in0.0 mm 0.00 in0.0 mm